Terminal Aerodrome Forecast
Issued by NWS

Home | Current Version | Previous Version | Text Only | Print | Product List | Glossary Off
Versions: 1 2 3 4 5 6 7 8 9 10 11 12 13 14 15 16 17 18

708
FTUS43 KIWX 201048 AAA
TAFSBN
TAF AMD
KSBN 201048Z 2011/2106 09010KT P6SM OVC018
     FM201600 11013G20KT 6SM -SHRA BR OVC020
     FM201800 12014G23KT 5SM SHRA BR VCTS OVC020CB
     FM202200 12013G22KT 5SM -SHRA BR OVC020
     FM210300 13010KT 6SM SHRA VCTS SCT020 OVC030CB=

USA.gov is the U.S. government's official web portal to all federal, state and local government web resources and services.